Terminal Aerodrome Forecast
Issued by NWS

Home | Current Version | Previous Version | Text Only | Print | Product List | Glossary On
Versions: 1 2 3 4 5 6 7 8 9 10 11 12 13 14
000
FTUS45 KRIW 180500
TAFBPI
TAF
KBPI 180525Z 1806/1906 VRB05KT P6SM SCT110
     FM181900 18006KT P6SM SCT100
     FM190100 VRB06KT P6SM SCT100 BKN140=

USA.gov is the U.S. government's official web portal to all federal, state and local government web resources and services.